• Join FlightAware (Why Join?)
  • Login
  • US Flag 
09:10PM EDT


 

Airport Tracker/Info


-or-


 

Live Flight TrackerFlight Track Log ✈ EJA952 ✈ 11-Jun-2013 ✈ KPBG - KHPN

Flight Track Log - Related Links

Times and Time Zones

All times are in EDT time to prevent confusion due to time zone crossing. See the EJA952 flight status page for this flight to view local times or setup timezone preferences in your user account.

Time Position Orientation Groundspeed Altitude Reporting Facility
EDT Latitude Longitude Course Direction KTS MPH feet Rate Location/Type
04:07PM 44.4969 -73.3975 186° South 264 304 9,200  Level Boston Center
04:08PM 44.4239 -73.4050 184° South 272 313 11,400 2,040 Climbing Boston Center
04:09PM 44.3342 -73.4269 190° South 314 361 13,300 1,980 Climbing Boston Center
04:10PM 44.2319 -73.4542 191° South 359 413 15,400 2,160 Climbing Boston Center
04:11PM 43.9773 -73.5808 187° South  Level FlightAware Approximate
04:11PM 44.1275 -73.4783 189° South 380 437 17,700  Level Boston Center
04:12PM 43.8650 -73.5986 186° South  Level FlightAware Approximate
04:12PM 44.0250 -73.5056 191° South 385 443 20,500  Level Boston Center
04:13PM 43.9186 -73.5294 189° South 390 449 22,000 720 Climbing Boston Center
04:14PM 43.7892 -73.5617 190° South 421 484 22,000  Level Boston Center
04:15PM 43.6639 -73.5911 190° South 458 527 22,000  Level Boston Center
04:16PM 43.5364 -73.6200 189° South 465 535 22,000  Level Boston Center
04:17PM 43.4089 -73.6489 189° South 465 535 22,000  Level Boston Center
04:18PM 43.2856 -73.6778 190° South 465 535 22,000  Level Boston Center
04:19PM 43.1625 -73.7067 190° South 465 535 22,000 -600 Level Boston Center
04:20PM 43.0350 -73.7381 190° South 465 535 20,900 -1,200 Descending Boston Center
04:21PM 42.9094 -73.7667 189° South 465 535 19,600 -1,260 Descending Boston Center
04:22PM 42.8028 -73.7956 191° South 458 527 18,400 -1,500 Descending Boston Center
04:23PM 42.6797 -73.8097 185° South 453 521 16,600 -1,200 Descending Boston Center
04:24PM 42.5403 -73.8067 179° South 447 514 16,000 -360 Descending Boston Center
04:25PM 42.4275 -73.8100 181° South 447 514 15,900 -900 Descending Boston Center
04:26PM 42.2964 -73.8097 180° South 437 503 14,300 -1,560 Descending Boston Center
04:27PM 42.1878 -73.8131 181° South 432 497 12,800 -1,200 Descending Boston Center
04:28PM 42.0586 -73.8186 182° South 432 497 12,000 -420 Descending Boston Center
04:29PM 41.9542 -73.8247 182° South 427 491 12,000 -60 Level Boston Center
04:30PM 41.8247 -73.8414 185° South 422 486 11,900 -840 Descending Boston Center
04:31PM 41.7331 -73.8478 183° South 395 455 10,400 -1,500 Descending Boston Center
04:32PM 41.6411 -73.8594 185° South 339 390 9,000 -1,320 Descending Boston Center
04:33PM 41.5500 -73.8667 183° South 289 333 7,700 -1,260 Descending New York TRACON
04:34PM 41.4833 -73.8833 191° South 280 322 6,500 -1,200 Descending New York TRACON
04:35PM 41.4000 -73.8500 163° South 295 339 5,400 -1,200 Descending New York TRACON
04:36PM 41.3500 -73.8000 143° Southeast 287 330 4,300 -1,200 Descending New York TRACON
04:37PM 41.2667 -73.7333 149° Southeast 281 323 3,000 -600 Descending New York TRACON
04:38PM 41.2000 -73.6667 143° Southeast 282 325 3,000  Level New York TRACON
04:39PM 41.1500 -73.6000 135° Southeast 282 325 3,000  Level New York TRACON
04:40PM 41.1000 -73.5500 143° Southeast 230 265 3,000  Level New York TRACON
04:41PM 41.0500 -73.5333 166° South 194 223 3,000 -480 Level New York TRACON
04:42PM 41.0000 -73.5167 166° South 196 226 2,100 -480 Descending New York TRACON
04:43PM 40.9667 -73.5500 217° Southwest 170 196 2,000 -60 Descending New York TRACON
04:44PM 40.9500 -73.6000 246° West 136 157 2,000  Level New York TRACON
04:45PM 40.9667 -73.6333 304° West 143 165 2,000 -180 Level New York TRACON
04:46PM 41.0000 -73.6500 339° North 131 151 1,700 -480 Descending New York TRACON
04:47PM 41.0333 -73.6833 323° Northwest 133 153 1,100 -600 Descending New York TRACON